Latest Weather Observations for Blackwater Airport

IDQ60801

Issued at 3:02 pm EST Saturday 28 February 2015 (issued every 30 minutes, with the page automatically refreshed every 10 minutes)

About weather observations | Map of weather stations | Latest weather observations for QLD | Other Formats
Station Details ID: 035134 Name: BLACKWATER AIRPORT Lat: -23.60 Lon: 148.81 Height: 192.95 m
Data from the previous 72 hours. | See also: Recent months at Blackwater Airport
Date/Time
EST
Temp
°C
App
Temp
°C
Dew
Point
Rel
Hum
%
Delta-T
°C
Wind Press
QNH
hPa
Press
MSL
hPa
Rain
since 9 am
mm
Dir
 
Spd
km/h
Gust
km/h
Spd
kts
Gust
kts
28/03:00pm 35.8 35.9 18.4 35 11.5 NE 15 22 8 12 1005.7 1004.4 0.0
28/02:30pm 34.9 36.2 18.5 38 10.8 ENE 9 17 5 9 1006.0 1004.7 0.0
28/02:00pm 34.0 34.0 18.1 39 10.4 NNE 15 24 8 13 1006.6 1005.3 0.0
28/01:30pm 33.1 33.3 17.7 40 10.0 N 13 24 7 13 1006.9 1005.6 0.0
28/01:00pm 34.3 35.0 18.8 40 10.2 NE 13 24 7 13 1007.4 1006.1 0.0
28/12:30pm 32.7 34.3 19.2 44 8.9 ESE 9 15 5 8 1007.9 1006.7 0.0
28/12:00pm 33.7 34.8 19.7 43 9.3 NNE 13 20 7 11 1008.5 1007.3 0.0
28/11:30am 31.3 31.1 18.6 46 8.3 N 17 30 9 16 1009.1 1007.8 0.0
28/11:00am 31.2 31.8 18.5 46 8.3 NNE 13 26 7 14 1009.7 1008.4 0.0
28/10:30am 31.2 31.7 19.2 48 7.9 NE 15 24 8 13 1010.2 1008.9 0.0
28/10:00am 29.5 30.0 19.2 54 6.7 NNE 15 20 8 11 1010.6 1009.3 0.0
28/09:30am 29.0 30.1 20.4 59 5.7 NE 15 20 8 11 1010.8 1009.5 0.0
28/09:00am 26.7 27.7 20.3 68 4.2 NNE 15 22 8 12 1011.1 1009.8 0.0
28/08:30am 26.5 28.1 20.8 71 3.8 NE 13 19 7 10 1010.7 1009.4 0.0
28/08:00am 25.8 27.6 21.2 76 3.1 ENE 13 19 7 10 1010.4 1009.1 0.0
28/07:30am 23.8 26.2 21.5 87 1.5 ENE 11 15 6 8 1010.2 1008.9 0.0
28/07:00am 22.8 25.1 21.3 91 1.0 ENE 11 15 6 8 1009.9 1008.6 0.0
28/06:30am 22.4 24.1 20.9 91 1.0 ENE 13 17 7 9 1009.6 1008.3 0.0
28/06:00am 22.3 24.0 20.9 92 0.9 E 13 15 7 8 1009.2 1007.9 0.0
28/05:30am 22.1 24.4 20.6 91 1.0 E 9 13 5 7 1009.2 1007.9 0.0
28/05:00am 22.4 24.0 20.7 90 1.1 ENE 13 17 7 9 1008.8 1007.5 0.0
28/04:30am 22.8 25.0 21.1 90 1.1 E 11 15 6 8 1008.8 1007.5 0.0
28/04:00am 22.8 25.7 21.1 90 1.1 ENE 7 9 4 5 1009.0 1007.7 0.0
28/03:30am 22.8 24.4 20.7 88 1.4 NNE 13 17 7 9 1008.4 1007.2 0.0
28/03:00am 24.0 26.3 20.7 82 2.2 ESE 9 13 5 7 1009.0 1007.7 0.0
28/02:30am 23.2 25.4 20.3 84 1.9 NE 9 15 5 8 1008.4 1007.2 0.0
28/02:00am 23.5 25.2 20.2 82 2.2 N 11 13 6 7 1009.0 1007.7 0.0
28/01:30am 23.9 24.5 20.2 80 2.4 NE 17 24 9 13 1008.8 1007.5 0.0
28/01:00am 24.1 24.7 20.2 79 2.6 NE 17 24 9 13 1009.0 1007.7 0.0
28/12:30am 24.5 25.3 20.6 79 2.6 NE 17 24 9 13 1008.9 1007.6 0.0
28/12:00am 24.7 25.1 20.6 78 2.7 NE 19 26 10 14 1009.0 1007.7 0.0
 
Date/Time
EST
Temp
°C
App
Temp
°C
Dew
Point
Rel
Hum
%
Delta-T
°C
Wind Press
QNH
hPa
Press
MSL
hPa
Rain
since 9 am
mm
Dir
 
Spd
km/h
Gust
km/h
Spd
kts
Gust
kts
27/11:30pm 24.9 25.4 20.8 78 2.7 NE 19 26 10 14 1009.0 1007.7 0.0
27/11:00pm 25.1 25.0 20.8 77 2.8 NE 22 33 12 18 1008.5 1007.3 0.0
27/10:30pm 25.4 25.8 20.9 76 3.0 NE 20 28 11 15 1008.1 1006.9 0.0
27/10:00pm 25.9 26.3 20.7 73 3.4 NNE 19 28 10 15 1007.8 1006.5 0.0
27/09:30pm 26.3 26.7 20.6 71 3.8 NE 19 26 10 14 1007.4 1006.1 0.0
27/09:00pm 27.1 27.4 20.7 68 4.3 NE 20 26 11 14 1007.3 1006.0 0.0
27/08:30pm 27.7 27.4 20.3 64 4.9 NE 22 30 12 16 1006.8 1005.5 0.0
27/08:00pm 28.8 28.1 19.4 56 6.2 NE 22 30 12 16 1006.2 1004.9 0.0
27/07:30pm 29.6 28.8 19.3 54 6.7 NE 22 30 12 16 1006.1 1004.8 0.0
27/07:00pm 30.2 29.7 19.2 51 7.2 NE 20 28 11 15 1005.4 1004.1 0.0
27/06:30pm 31.1 30.1 18.8 48 8.1 NE 22 30 12 16 1005.2 1003.9 0.0
27/06:00pm 32.1 30.8 19.0 45 8.6 NE 24 32 13 17 1004.7 1003.4 0.0
27/05:30pm 32.5 31.6 19.0 44 8.9 NE 22 33 12 18 1004.6 1003.3 0.0
27/05:00pm 32.8 31.7 17.8 40 9.7 NE 20 30 11 16 1003.9 1002.6 0.0
27/04:30pm 34.4 33.8 18.4 38 10.5 ENE 19 30 10 16 1004.0 1002.7 0.0
27/04:00pm 34.7 34.6 17.9 37 11.0 NE 15 28 8 15 1004.0 1002.7 0.0
27/03:30pm 34.1 33.4 18.6 40 10.2 NE 20 32 11 17 1004.3 1003.0 0.0
27/03:00pm 34.9 34.5 18.9 39 10.6 ENE 19 28 10 15 1004.5 1003.2 0.0
27/02:30pm 35.6 36.2 18.7 37 11.2 NE 13 24 7 13 1005.2 1003.9 0.0
27/02:00pm 34.4 34.3 18.8 39 10.3 NE 17 26 9 14 1005.5 1004.2 0.0
27/01:30pm 34.4 35.5 18.8 39 10.3 NE 11 20 6 11 1006.0 1004.7 0.0
27/01:00pm 33.5 34.1 17.6 38 10.3 NNW 11 26 6 14 1006.6 1005.3 0.0
27/12:30pm 33.5 33.3 17.6 38 10.3 N 15 30 8 16 1007.0 1005.7 0.0
27/12:00pm 32.5 33.1 19.4 46 8.7 N 15 28 8 15 1007.5 1006.2 0.0
27/11:30am 33.0 34.0 20.2 47 8.6 NNE 15 32 8 17 1008.0 1006.8 0.0
27/11:00am 30.0 30.3 19.7 54 6.8 NNE 17 26 9 14 1008.7 1007.4 0.0
27/10:30am 30.9 31.6 20.5 54 7.0 NE 17 24 9 13 1009.0 1007.7 0.0
27/10:00am 30.3 31.3 21.1 58 6.2 NNE 17 26 9 14 1009.4 1008.1 0.0
27/09:30am 28.6 29.5 20.9 63 5.1 NE 17 26 9 14 1009.5 1008.2 0.0
27/09:00am 27.2 28.7 21.2 69 4.0 NNE 15 20 8 11 1009.7 1008.4 0.0
27/08:30am 26.9 28.5 21.4 72 3.7 NE 15 24 8 13 1009.6 1008.3 0.0
27/08:00am 25.2 27.3 20.9 77 2.8 NE 11 15 6 8 1009.6 1008.3 0.0
27/07:30am 24.4 26.3 20.5 79 2.6 NE 11 17 6 9 1009.5 1008.2 0.0
27/07:00am 24.2 26.2 20.7 81 2.3 NE 11 15 6 8 1009.3 1008.0 0.0
27/06:30am 23.5 25.3 20.4 83 2.0 NE 11 15 6 8 1008.9 1007.6 0.0
27/06:00am 23.6 25.8 20.5 83 2.0 NE 9 13 5 7 1008.7 1007.4 0.0
27/05:30am 23.5 25.3 20.4 83 2.0 NE 11 17 6 9 1008.0 1006.8 0.0
27/05:00am 23.6 25.1 20.5 83 2.0 NE 13 17 7 9 1007.5 1006.2 0.0
27/04:30am 23.7 25.2 20.6 83 2.0 NE 13 20 7 11 1007.4 1006.1 0.0
27/04:00am 23.7 25.6 20.6 83 2.0 NE 11 17 6 9 1007.4 1006.1 0.0
27/03:30am 23.8 25.0 20.7 83 2.0 NE 15 20 8 11 1007.0 1005.7 0.0
27/03:00am 23.9 24.7 20.6 82 2.2 NE 17 22 9 12 1007.1 1005.8 0.0
27/02:30am 24.0 25.3 20.9 83 2.0 NE 15 20 8 11 1007.3 1006.0 0.0
27/02:00am 23.6 24.8 20.7 84 1.9 NE 15 22 8 12 1007.3 1006.0 0.0
27/01:30am 23.7 25.1 20.4 82 2.2 NE 13 17 7 9 1007.5 1006.2 0.0
27/01:00am 23.8 24.7 20.1 80 2.4 NE 15 20 8 11 1007.4 1006.1 0.0
27/12:30am 24.0 24.6 19.5 76 2.9 NE 15 20 8 11 1007.4 1006.1 0.0
27/12:00am 24.2 24.3 18.4 70 3.7 NE 15 20 8 11 1007.3 1006.0 0.0
 
Date/Time
EST
Temp
°C
App
Temp
°C
Dew
Point
Rel
Hum
%
Delta-T
°C
Wind Press
QNH
hPa
Press
MSL
hPa
Rain
since 9 am
mm
Dir
 
Spd
km/h
Gust
km/h
Spd
kts
Gust
kts
26/11:30pm 25.3 24.8 17.7 62 4.8 NE 17 24 9 13 1007.5 1006.2 0.0
26/11:00pm 25.9 24.9 17.5 59 5.3 ENE 19 26 10 14 1007.7 1006.4 0.0
26/10:30pm 25.5 25.5 17.2 60 5.2 NE 13 17 7 9 1007.8 1006.5 0.0
26/10:00pm 26.1 26.0 16.9 57 5.8 NE 13 15 7 8 1007.9 1006.7 0.0
26/09:30pm 27.2 27.2 17.1 54 6.4 NE 13 20 7 11 1008.0 1006.8 0.0
26/09:00pm 28.3 27.2 17.2 51 7.0 ENE 19 26 10 14 1007.5 1006.2 0.0
26/08:30pm 28.4 27.8 17.6 52 6.9 ENE 17 24 9 13 1007.3 1006.0 0.0
26/08:00pm 28.8 27.9 17.7 51 7.1 NE 19 28 10 15 1006.5 1005.2 0.0
26/07:30pm 29.2 28.5 17.4 49 7.5 NE 17 20 9 11 1006.1 1004.8 0.0
26/07:00pm 30.1 28.8 17.2 46 8.2 ENE 20 26 11 14 1005.7 1004.4 0.0
26/06:30pm 31.1 29.6 16.7 42 9.1 ENE 20 30 11 16 1005.3 1004.0 0.0
26/06:00pm 32.7 31.9 16.1 37 10.5 NE 15 26 8 14 1004.9 1003.6 0.0
26/05:30pm 34.4 35.4 15.3 31 12.0 NE 4 7 2 4 1004.6 1003.3 0.0
26/05:00pm 34.6 35.1 15.5 32 12.1 ENE 7 11 4 6 1004.7 1003.4 0.0
26/04:30pm 34.5 34.8 15.9 33 11.8 SE 9 13 5 7 1004.9 1003.6 0.0
26/04:00pm 34.6 34.3 15.5 32 12.1 E 11 20 6 11 1004.8 1003.5 0.0
26/03:30pm 34.6 34.5 16.0 33 11.8 NE 11 20 6 11 1005.1 1003.8 0.0
26/03:00pm 34.6 34.9 16.9 35 11.4 S 11 20 6 11 1005.6 1004.3 0.0
26/02:30pm 34.5 34.4 15.9 33 11.8 NNW 11 19 6 10 1006.0 1004.7 0.0
26/02:00pm 32.9 33.1 15.8 35 10.8 NNW 9 20 5 11 1006.6 1005.3 0.0
26/01:30pm 33.5 34.7 16.8 36 10.7 S 6 11 3 6 1007.2 1005.9 0.0
26/01:00pm 33.1 33.9 18.1 41 9.8 WNW 11 22 6 12 1007.7 1006.4 0.0
26/12:30pm 31.2 31.4 16.8 42 9.2 NNW 11 19 6 10 1008.2 1007.0 0.0
26/12:00pm 31.3 31.5 17.6 44 8.8 N 13 20 7 11 1009.0 1007.7 0.0
26/11:30am 31.0 32.4 17.7 45 8.6 NE 7 13 4 7 1009.5 1008.2 0.0
26/11:00am 30.1 31.0 17.5 46 8.1 NNE 9 17 5 9 1010.2 1008.9 0.0
26/10:30am 29.0 30.8 18.4 52 6.8 NE 6 13 3 7 1010.4 1009.1 0.0
26/10:00am 28.6 30.3 18.4 54 6.6 NE 7 15 4 8 1010.8 1009.5 0.0
26/09:30am 27.8 28.9 18.8 58 5.8 NE 11 20 6 11 1011.2 1009.9 0.0
26/09:00am 27.1 27.5 18.1 58 5.8 ENE 13 19 7 10 1011.4 1010.1 0.0
26/08:30am 26.4 26.9 19.3 65 4.6 NE 15 22 8 12 1011.4 1010.1 0.0
26/08:00am 25.1 27.0 19.7 72 3.5 ENE 9 15 5 8 1011.4 1010.1 0.0
26/07:30am 24.7 26.4 20.2 76 2.9 E 11 15 6 8 1011.1 1009.8 0.0
26/07:00am 23.9 26.6 20.6 82 2.2 E 7 9 4 5 1010.9 1009.6 0.0
26/06:30am 22.4 24.9 20.3 88 1.4 E 7 11 4 6 1010.4 1009.1 0.0
26/06:00am 21.6 24.0 20.1 91 1.0 E 7 11 4 6 1009.9 1008.6 0.0
26/05:30am 21.1 23.8 19.4 90 1.1 ESE 4 7 2 4 1009.6 1008.3 0.0
26/05:00am 21.2 24.8 19.7 91 1.0 CALM 0 0 0 0 1009.4 1008.1 0.0
26/04:30am 21.2 23.4 19.5 90 1.1 NNE 7 9 4 5 1009.3 1008.0 0.0
26/04:00am 21.3 23.0 19.4 89 1.2 NE 9 11 5 6 1008.8 1007.5 0.0
26/03:30am 21.8 24.0 19.7 88 1.4 NNE 7 9 4 5 1008.8 1007.5 0.0
26/03:00am 22.5 24.1 20.0 86 1.6 NE 11 13 6 7 1008.7 1007.4 0.0
26/02:30am 22.6 25.3 20.3 87 1.5 ENE 6 7 3 4 1009.5 1008.2 0.0
26/02:00am 22.3 24.7 20.0 87 1.5 NE 7 9 4 5 1009.5 1008.2 0.0
26/01:30am 22.0 24.1 19.4 85 1.7 NE 7 11 4 6 1009.7 1008.4 0.0
26/01:00am 22.9 24.1 19.9 83 1.9 ENE 13 17 7 9 1009.7 1008.4 0.0
26/12:30am 23.5 23.9 19.8 80 2.4 ENE 17 20 9 11 1009.6 1008.3 0.0
26/12:00am 23.9 24.7 19.8 78 2.7 NE 15 22 8 12 1009.9 1008.6 0.0
 
Date/Time
EST
Temp
°C
App
Temp
°C
Dew
Point
Rel
Hum
%
Delta-T
°C
Wind Press
QNH
hPa
Press
MSL
hPa
Rain
since 9 am
mm
Dir
 
Spd
km/h
Gust
km/h
Spd
kts
Gust
kts
25/11:30pm 24.7 24.8 20.0 75 3.1 ENE 19 26 10 14 1010.1 1008.8 0.0
25/11:00pm 25.3 25.3 20.1 73 3.4 ENE 20 28 11 15 1009.9 1008.6 0.0
25/10:30pm 26.0 26.0 18.9 65 4.6 ENE 17 22 9 12 1010.0 1008.7 0.0
25/10:00pm 25.4 25.7 17.8 62 4.8 ENE 13 15 7 8 1009.6 1008.3 0.0
25/09:30pm 25.9 26.7 17.3 59 5.4 NE 9 11 5 6 1009.4 1008.1 0.0
25/09:00pm 27.0 27.6 17.8 57 5.9 ENE 11 15 6 8 1009.2 1007.9 0.0
25/08:30pm 28.0 27.5 17.8 54 6.5 ENE 17 19 9 10 1008.8 1007.5 0.0
25/08:00pm 28.5 28.1 18.0 53 6.7 ENE 17 22 9 12 1008.2 1007.0 0.0
25/07:30pm 28.7 27.8 16.9 48 7.4 E 17 22 9 12 1007.8 1006.5 0.0
25/07:00pm 29.7 27.8 16.8 45 8.2 E 22 28 12 15 1007.3 1006.0 0.0
25/06:30pm 30.7 28.4 16.7 43 8.9 E 24 32 13 17 1006.9 1005.6 0.0
25/06:00pm 32.1 28.8 15.1 35 10.6 E 26 35 14 19 1007.0 1005.7 0.0
25/05:30pm 33.3 31.0 15.8 35 11.0 E 22 35 12 19 1006.6 1005.3 0.0
25/05:00pm 34.7 32.2 14.0 28 12.8 SE 20 28 11 15 1006.5 1005.2 0.0
25/04:30pm 35.4 32.9 13.5 26 13.5 SE 19 30 10 16 1006.6 1005.3 0.0
25/04:00pm 35.7 33.3 14.4 28 13.3 SE 20 44 11 24 1006.6 1005.3 0.0
25/03:30pm 36.0 33.7 14.1 27 13.6 SE 19 30 10 16 1006.7 1005.4 0.0

Other Formats:

Comma delimited format used in spreadsheet applications
http://www.bom.gov.au/fwo/IDQ60801/IDQ60801.94398.axf

JavaScript Object Notation format (JSON) in row-major order
http://www.bom.gov.au/fwo/IDQ60801/IDQ60801.94398.json